Time;durP1;ratioP1;P1;durP2;ratioP2;P2;SDS_P1;SDS_P2;PMS_P1;PMS_P2;Temp;Humidity;BMP_temperature;BMP_pressure;BME280_temperature;BME280_humidity;BME280_pressure;Samples;Min_cycle;Max_cycle;Signal;HPM_P1;HPM_P2
2021/12/08 00:00:21;;;;;;;2.20;1.77;;;2.30;99.90;;;;;;5093797;28;20051;-82
2021/12/08 00:02:47;;;;;;;1.30;1.20;;;2.20;99.90;;;;;;5090698;28;20028;-86
2021/12/08 00:05:15;;;;;;;2.03;1.42;;;2.10;99.90;;;;;;5091458;28;20036;-82
2021/12/08 00:07:41;;;;;;;1.60;1.30;;;2.10;99.90;;;;;;5075272;28;20484;-83
2021/12/08 00:10:50;;;;;;;;;;;2.00;99.90;;;;;;5125156;27;20515;-82
2021/12/08 00:13:08;;;;;;;1.15;1.08;;;2.00;99.90;;;;;;5125597;27;19916;-85
2021/12/08 00:15:37;;;;;;;1.02;1.00;;;1.90;99.90;;;;;;5106749;28;20032;-85
2021/12/08 00:18:11;;;;;;;1.40;1.30;;;1.90;99.90;;;;;;5076888;28;20040;-84
2021/12/08 00:20:39;;;;;;;1.65;1.55;;;1.80;99.90;;;;;;5089346;28;20443;-84
2021/12/08 00:23:06;;;;;;;2.60;1.42;;;2.10;99.90;;;;;;5074869;28;20036;-85
2021/12/08 00:25:34;;;;;;;2.28;2.05;;;1.90;99.90;;;;;;5107707;28;20056;-84
2021/12/08 00:28:00;;;;;;;1.77;1.67;;;1.90;99.90;;;;;;5124493;27;20434;-83
2021/12/08 00:30:28;;;;;;;3.05;1.60;;;1.90;99.90;;;;;;5125146;27;20044;-81
2021/12/08 00:32:55;;;;;;;3.15;1.80;;;1.90;99.90;;;;;;5090382;28;20044;-83
2021/12/08 00:35:22;;;;;;;3.03;1.80;;;1.90;99.90;;;;;;5090567;28;20050;-84
2021/12/08 00:37:48;;;;;;;2.15;2.03;;;2.20;99.90;;;;;;5073893;28;20047;-85
2021/12/08 00:40:17;;;;;;;2.70;2.30;;;2.00;99.90;;;;;;5091060;28;20382;-83
2021/12/08 00:42:45;;;;;;;2.17;1.50;;;2.00;99.90;;;;;;5099203;28;20063;-84
2021/12/08 00:45:12;;;;;;;2.85;1.45;;;2.00;99.90;;;;;;5107916;28;20566;-84
2021/12/08 00:47:39;;;;;;;1.25;1.15;;;2.00;99.90;;;;;;5073357;28;20039;-83
2021/12/08 00:50:07;;;;;;;1.63;1.52;;;2.00;99.90;;;;;;5074764;28;20042;-84
2021/12/08 00:52:33;;;;;;;3.53;2.75;;;2.00;99.90;;;;;;5091475;28;20500;-85
2021/12/08 00:55:01;;;;;;;1.45;1.35;;;2.10;99.90;;;;;;5074729;28;20032;-85
2021/12/08 00:57:26;;;;;;;1.88;1.33;;;2.10;99.90;;;;;;5089711;28;20043;-85
2021/12/08 00:59:52;;;;;;;6.00;2.10;;;2.10;99.90;;;;;;5064424;28;20082;-82
2021/12/08 01:02:18;;;;;;;2.00;1.80;;;2.10;99.90;;;;;;5103234;28;20046;-86
2021/12/08 01:04:44;;;;;;;1.30;1.20;;;2.20;99.90;;;;;;5091139;28;20068;-86
2021/12/08 01:07:10;;;;;;;2.22;1.98;;;2.20;99.90;;;;;;5074789;28;20055;-85
2021/12/08 01:09:36;;;;;;;1.70;1.55;;;2.20;99.90;;;;;;5091606;28;20101;-85
2021/12/08 01:12:03;;;;;;;2.10;1.88;;;2.20;99.90;;;;;;5092210;28;20043;-83
2021/12/08 01:14:34;;;;;;;1.48;1.38;;;2.20;99.90;;;;;;5090473;28;20136;-84
2021/12/08 01:17:02;;;;;;;1.77;1.67;;;2.20;99.90;;;;;;5090611;28;20112;-84
2021/12/08 01:19:28;;;;;;;2.55;2.17;;;2.30;99.90;;;;;;5073893;28;20063;-86
2021/12/08 01:21:54;;;;;;;1.35;1.25;;;2.40;99.90;;;;;;5090360;28;20079;-82
2021/12/08 01:24:20;;;;;;;1.52;1.42;;;2.30;99.90;;;;;;5080732;28;20047;-84
2021/12/08 01:26:46;;;;;;;;;;;2.60;99.90;;;;;;5121493;28;20361;-84
2021/12/08 01:29:12;;;;;;;7.18;1.88;;;2.40;99.90;;;;;;5061047;28;19916;-87
2021/12/08 01:31:41;;;;;;;2.38;2.17;;;2.40;99.90;;;;;;5074913;28;20035;-83
2021/12/08 01:34:08;;;;;;;2.05;1.90;;;2.50;99.90;;;;;;5089366;28;20047;-86
2021/12/08 01:36:35;;;;;;;2.45;2.00;;;2.50;99.90;;;;;;5095893;28;20483;-84
2021/12/08 01:39:02;;;;;;;3.33;2.15;;;2.50;99.90;;;;;;5128619;27;20405;-83
2021/12/08 01:41:28;;;;;;;1.85;1.67;;;2.50;99.90;;;;;;5076874;28;20047;-82
2021/12/08 01:46:38;;;;;;;1.58;1.48;;;2.60;99.90;;;;;;5086731;28;20046;-84
2021/12/08 01:49:04;;;;;;;2.63;1.75;;;2.60;99.90;;;;;;5059735;28;20115;-85
2021/12/08 01:51:30;;;;;;;1.75;1.50;;;2.60;99.90;;;;;;5089230;28;20054;-88
2021/12/08 01:53:58;;;;;;;1.75;1.65;;;2.90;99.90;;;;;;5100567;28;20032;-85
2021/12/08 01:56:25;;;;;;;1.30;1.20;;;2.70;99.90;;;;;;5082590;28;20072;-83
2021/12/08 01:58:51;;;;;;;2.72;1.63;;;2.60;99.90;;;;;;5100234;28;20068;-84
2021/12/08 02:01:20;;;;;;;1.08;1.05;;;2.70;99.90;;;;;;5115823;28;20032;-82
2021/12/08 02:03:47;;;;;;;2.40;1.75;;;2.80;99.90;;;;;;5099728;28;20044;-84
2021/12/08 02:06:14;;;;;;;1.75;1.65;;;2.80;99.90;;;;;;5106065;28;20036;-84
2021/12/08 02:08:41;;;;;;;3.22;2.15;;;2.80;99.90;;;;;;5094846;28;20036;-86
2021/12/08 02:11:06;;;;;;;;;;;2.50;99.90;;;;;;5119767;27;20053;-84
2021/12/08 02:13:38;;;;;;;1.60;1.33;;;3.10;99.90;;;;;;5093347;28;19923;-84
2021/12/08 02:16:10;;;;;;;3.95;1.95;;;3.30;99.90;;;;;;5094272;28;20044;-83
2021/12/08 02:18:37;;;;;;;3.85;2.17;;;2.90;99.90;;;;;;5080276;28;20123;-82
2021/12/08 02:21:35;;;;;;;1.50;1.40;;;2.90;99.90;;;;;;5093908;28;20076;-82
2021/12/08 02:24:10;;;;;;;2.58;1.63;;;2.90;99.90;;;;;;5114644;27;20049;-83
2021/12/08 02:26:38;;;;;;;3.00;2.15;;;2.90;99.90;;;;;;5124189;27;20390;-85
2021/12/08 02:29:09;;;;;;;2.42;1.88;;;3.00;99.90;;;;;;5093626;28;20036;-82
2021/12/08 02:31:48;;;;;;;1.88;1.70;;;2.90;99.90;;;;;;5108917;28;20058;-81
2021/12/08 02:47:57;;;;;;;1.65;1.42;;;3.10;99.90;;;;;;5092329;28;20056;-81
2021/12/08 02:50:35;;;;;;;1.65;1.55;;;3.00;99.90;;;;;;5064522;28;20077;-84
2021/12/08 02:53:03;;;;;;;3.80;2.78;;;3.10;99.90;;;;;;5071032;28;20035;-83
2021/12/08 02:55:29;;;;;;;1.85;1.75;;;3.10;99.90;;;;;;5093903;28;20038;-83
2021/12/08 02:57:57;;;;;;;1.38;1.27;;;3.50;99.90;;;;;;5092600;28;20066;-82
2021/12/08 03:00:26;;;;;;;1.98;1.60;;;3.10;99.90;;;;;;5092048;28;20083;-80
2021/12/08 03:02:56;;;;;;;1.45;1.35;;;3.20;99.90;;;;;;5083167;28;20054;-88
2021/12/08 03:05:23;;;;;;;1.80;1.55;;;3.10;99.90;;;;;;5098507;28;20040;-83
2021/12/08 03:07:49;;;;;;;2.20;1.85;;;3.10;99.90;;;;;;5106604;28;20031;-83
2021/12/08 03:10:19;;;;;;;3.63;1.38;;;3.10;99.90;;;;;;5075202;28;20083;-82
2021/12/08 03:12:45;;;;;;;2.35;2.10;;;3.10;99.90;;;;;;5096192;28;20048;-85
2021/12/08 03:15:12;;;;;;;2.90;1.90;;;3.20;99.90;;;;;;5091775;28;20037;-82
2021/12/08 03:17:39;;;;;;;1.60;1.50;;;3.20;99.90;;;;;;5091369;28;20477;-83
2021/12/08 03:20:07;;;;;;;;;;;3.20;99.90;;;;;;5092874;28;20537;-84
2021/12/08 03:22:36;;;;;;;2.28;2.08;;;3.20;99.90;;;;;;5091911;28;19987;-84
2021/12/08 03:25:06;;;;;;;2.80;1.95;;;3.30;99.90;;;;;;5092280;28;20094;-83
2021/12/08 03:27:43;;;;;;;2.25;1.92;;;3.20;99.90;;;;;;5075845;28;20484;-82
2021/12/08 03:30:33;;;;;;;1.65;1.42;;;3.30;99.90;;;;;;5091888;28;20083;-84
2021/12/08 03:32:58;;;;;;;2.08;1.90;;;3.20;99.90;;;;;;5093226;28;20040;-83
2021/12/08 03:35:25;;;;;;;3.50;2.15;;;3.20;99.90;;;;;;5106509;27;20075;-84
2021/12/08 03:37:52;;;;;;;1.75;1.65;;;3.30;99.90;;;;;;5109181;28;20071;-84
2021/12/08 03:40:21;;;;;;;2.50;2.30;;;3.30;99.90;;;;;;5074613;28;20051;-83
2021/12/08 03:42:48;;;;;;;4.53;1.67;;;3.30;99.90;;;;;;5091139;28;20082;-82
2021/12/08 03:45:18;;;;;;;1.63;1.52;;;3.30;99.90;;;;;;5075164;28;20039;-85
2021/12/08 03:47:47;;;;;;;2.05;1.88;;;3.30;99.90;;;;;;5074824;28;20066;-83
2021/12/08 03:50:16;;;;;;;1.98;1.77;;;3.30;99.90;;;;;;5130618;27;20473;-83
2021/12/08 03:52:42;;;;;;;3.67;2.08;;;3.30;99.90;;;;;;5092386;28;20092;-83
2021/12/08 03:55:11;;;;;;;3.55;2.28;;;3.40;99.90;;;;;;5093143;28;20063;-82
2021/12/08 03:57:37;;;;;;;3.80;2.30;;;3.40;99.90;;;;;;5115172;27;20052;-82
2021/12/08 04:00:13;;;;;;;4.13;2.30;;;3.40;99.90;;;;;;5096267;28;20044;-82
2021/12/08 04:02:39;;;;;;;4.23;2.03;;;3.40;99.90;;;;;;5085809;28;20116;-82
2021/12/08 04:05:06;;;;;;;3.35;2.65;;;3.40;99.90;;;;;;5091105;28;20656;-84
2021/12/08 04:07:32;;;;;;;2.58;2.08;;;3.40;99.90;;;;;;5075000;28;20126;-83
2021/12/08 04:09:58;;;;;;;2.45;2.25;;;3.50;99.90;;;;;;5091026;28;20470;-82
2021/12/08 04:12:24;;;;;;;;;;;3.50;99.90;;;;;;5085562;28;20047;-84
2021/12/08 04:14:59;;;;;;;1.83;1.65;;;3.70;99.90;;;;;;5074636;28;19916;-86
2021/12/08 04:17:38;;;;;;;4.23;2.13;;;3.50;99.90;;;;;;5090881;28;20132;-84
2021/12/08 04:20:25;;;;;;;3.75;2.03;;;3.50;99.90;;;;;;5091820;28;20048;-81
2021/12/08 04:22:53;;;;;;;3.08;2.78;;;3.50;99.90;;;;;;5125308;27;20500;-86
2021/12/08 04:25:26;;;;;;;2.67;2.03;;;3.60;99.90;;;;;;5083841;28;20052;-85
2021/12/08 04:27:54;;;;;;;2.95;1.85;;;3.60;99.90;;;;;;5091027;28;20392;-85
2021/12/08 04:30:34;;;;;;;7.20;3.60;;;3.60;99.90;;;;;;5091555;28;20052;-83
2021/12/08 04:33:00;;;;;;;3.15;2.00;;;3.60;99.90;;;;;;5090474;28;20058;-83
2021/12/08 04:35:27;;;;;;;2.53;1.90;;;3.60;99.90;;;;;;5091308;28;20032;-82
2021/12/08 04:37:58;;;;;;;3.40;2.65;;;3.70;99.90;;;;;;5090884;28;20048;-86
2021/12/08 04:40:38;;;;;;;2.70;2.50;;;3.70;99.90;;;;;;5091297;28;20040;-83
2021/12/08 04:43:19;;;;;;;3.40;2.47;;;4.00;99.90;;;;;;5073715;28;20492;-84
2021/12/08 04:46:13;;;;;;;4.65;3.55;;;3.70;99.90;;;;;;5091439;28;20066;-84
2021/12/08 05:00:46;;;;;;;3.10;2.40;;;3.90;99.90;;;;;;5091465;28;20404;-84
2021/12/08 05:06:05;;;;;;;4.78;2.90;;;3.90;99.90;;;;;;5090409;28;20686;-85
2021/12/08 05:08:44;;;;;;;4.63;3.15;;;3.90;99.90;;;;;;5073792;28;20092;-82
2021/12/08 05:11:13;;;;;;;6.40;3.50;;;3.90;99.90;;;;;;5077502;28;21740;-84
2021/12/08 05:13:41;;;;;;;6.38;2.83;;;4.00;99.90;;;;;;5093048;28;20058;-81
2021/12/08 05:16:07;;;;;;;4.75;2.58;;;4.00;99.90;;;;;;5083394;28;20054;-83
2021/12/08 05:18:35;;;;;;;;;;;3.90;99.90;;;;;;5095389;28;20059;-83
2021/12/08 05:21:13;;;;;;;3.38;2.42;;;3.90;99.90;;;;;;5094304;28;19948;-82
2021/12/08 05:23:43;;;;;;;2.53;2.33;;;3.90;99.90;;;;;;5087334;28;20058;-83
2021/12/08 05:26:34;;;;;;;3.00;2.58;;;4.00;99.90;;;;;;5094570;28;20043;-86
2021/12/08 05:29:21;;;;;;;3.17;2.88;;;4.00;99.90;;;;;;5095538;28;20415;-83
2021/12/08 05:31:47;;;;;;;4.57;3.50;;;4.10;99.90;;;;;;5077613;28;20052;-83
2021/12/08 05:34:13;;;;;;;4.85;2.83;;;4.10;99.90;;;;;;5079272;28;20059;-83
2021/12/08 05:36:40;;;;;;;;;;;4.10;99.90;;;;;;5095561;28;20043;-85
2021/12/08 05:39:10;;;;;;;3.90;2.87;;;4.20;99.90;;;;;;5094713;28;19969;-84
2021/12/08 05:41:38;;;;;;;3.38;3.05;;;4.20;99.90;;;;;;5126680;27;20302;-84
2021/12/08 05:44:05;;;;;;;6.40;3.63;;;4.30;99.90;;;;;;5090979;28;20047;-84
2021/12/08 05:46:35;;;;;;;6.13;4.70;;;4.30;99.90;;;;;;5094282;28;20055;-85
2021/12/08 05:49:01;;;;;;;3.30;3.00;;;4.40;99.90;;;;;;5092163;28;20058;-88
2021/12/08 05:51:34;;;;;;;4.25;3.25;;;4.40;99.90;;;;;;5097585;28;20048;-84
2021/12/08 05:54:04;;;;;;;3.03;2.13;;;4.40;99.90;;;;;;5075596;28;20075;-84
2021/12/08 05:56:30;;;;;;;6.80;2.90;;;4.70;99.90;;;;;;5093988;28;20066;-84
2021/12/08 05:58:59;;;;;;;12.75;2.33;;;4.50;99.90;;;;;;5077050;28;20040;-84
2021/12/08 06:01:40;;;;;;;5.45;3.25;;;4.50;99.90;;;;;;5089262;28;20040;-84
2021/12/08 06:04:08;;;;;;;5.80;3.42;;;4.50;99.90;;;;;;5122269;27;20474;-84
2021/12/08 06:06:36;;;;;;;2.55;2.15;;;4.70;99.90;;;;;;5091144;28;20089;-83
2021/12/08 06:09:06;;;;;;;4.43;2.42;;;5.00;99.90;;;;;;5113836;27;20115;-85
2021/12/08 06:11:32;;;;;;;3.03;2.20;;;4.60;99.90;;;;;;5124454;27;20040;-84
2021/12/08 06:13:59;;;;;;;4.25;2.70;;;4.70;99.90;;;;;;5126901;27;20040;-84
2021/12/08 06:16:27;;;;;;;3.03;2.10;;;5.10;99.90;;;;;;5093547;28;20086;-81
2021/12/08 06:18:53;;;;;;;2.35;2.15;;;4.70;99.90;;;;;;5090952;28;20050;-81
2021/12/08 06:21:23;;;;;;;10.70;3.58;;;5.10;99.90;;;;;;5092512;28;20047;-81
2021/12/08 06:23:50;;;;;;;2.20;2.00;;;4.70;99.90;;;;;;5092844;28;20499;-80
2021/12/08 06:26:19;;;;;;;4.25;2.05;;;4.80;99.90;;;;;;5053940;28;20087;-82
2021/12/08 06:28:45;;;;;;;7.93;2.15;;;4.70;99.90;;;;;;5048843;28;20037;-84
2021/12/08 06:31:12;;;;;;;;;;;4.80;99.90;;;;;;5051763;28;20094;-82
2021/12/08 06:33:38;;;;;;;7.82;3.00;;;4.80;99.90;;;;;;5052052;28;19924;-81
2021/12/08 06:36:08;;;;;;;4.22;2.25;;;4.80;99.90;;;;;;5052760;28;20057;-81
2021/12/08 06:38:34;;;;;;;5.18;2.53;;;4.80;99.90;;;;;;5052767;28;20048;-82
2021/12/08 06:41:05;;;;;;;3.55;2.58;;;4.80;99.90;;;;;;5058518;28;20418;-82
2021/12/08 06:43:37;;;;;;;4.35;2.40;;;4.90;99.90;;;;;;5053168;28;20075;-82
2021/12/08 06:46:06;;;;;;;4.72;3.75;;;5.10;99.90;;;;;;5052760;28;20617;-82
2021/12/08 06:48:37;;;;;;;3.95;2.85;;;4.80;99.90;;;;;;5052753;28;20052;-83
2021/12/08 06:51:09;;;;;;;2.40;2.17;;;5.10;99.90;;;;;;5052891;28;20048;-86
2021/12/08 06:53:36;;;;;;;3.33;2.72;;;4.90;99.90;;;;;;5082118;28;20045;-83
2021/12/08 06:56:16;;;;;;;3.50;2.25;;;4.90;99.90;;;;;;5052705;28;20045;-85
2021/12/08 06:58:47;;;;;;;3.90;2.63;;;4.90;99.90;;;;;;5063330;28;20053;-82
2021/12/08 07:04:28;;;;;;;1.55;1.45;;;4.80;99.90;;;;;;5051704;28;20045;-82
2021/12/08 07:07:12;;;;;;;2.13;1.90;;;4.90;99.90;;;;;;5054485;28;20048;-85
2021/12/08 07:09:43;;;;;;;2.80;1.77;;;4.70;99.90;;;;;;5049451;28;20045;-85
2021/12/08 07:12:17;;;;;;;1.83;1.60;;;5.00;99.90;;;;;;5069094;28;20041;-82
2021/12/08 07:14:49;;;;;;;4.38;2.97;;;4.70;99.90;;;;;;5052904;28;20494;-83
2021/12/08 07:17:21;;;;;;;7.93;2.90;;;4.70;99.90;;;;;;5072286;28;20045;-83
2021/12/08 07:20:02;;;;;;;2.40;2.20;;;4.70;99.90;;;;;;5052267;28;20502;-82
2021/12/08 07:22:34;;;;;;;2.22;1.88;;;4.70;99.90;;;;;;5037020;28;20048;-83
2021/12/08 07:25:02;;;;;;;3.42;2.15;;;4.60;99.90;;;;;;5071342;28;20119;-84
2021/12/08 07:27:35;;;;;;;4.07;2.03;;;4.40;99.90;;;;;;5099810;28;20443;-82
2021/12/08 07:30:09;;;;;;;4.30;2.33;;;4.60;99.90;;;;;;5094567;28;20043;-82
2021/12/08 07:32:37;;;;;;;2.80;2.10;;;4.60;99.90;;;;;;5091554;28;20035;-82
2021/12/08 07:35:16;;;;;;;5.80;2.83;;;4.50;99.90;;;;;;5077880;28;20427;-83
2021/12/08 07:37:43;;;;;;;1.88;1.45;;;4.50;99.90;;;;;;5090662;28;20036;-81
2021/12/08 07:40:14;;;;;;;;;;;4.50;99.90;;;;;;5056460;28;20048;-76
2021/12/08 07:42:54;;;;;;;2.33;2.00;;;4.40;99.90;;;;;;5091668;28;19924;-78
2021/12/08 07:45:37;;;;;;;3.00;2.67;;;4.30;99.90;;;;;;5084148;28;20110;-79
2021/12/08 07:48:07;;;;;;;2.83;1.60;;;4.30;99.90;;;;;;5087940;28;20117;-80
2021/12/08 07:50:40;;;;;;;2.33;1.92;;;4.30;99.90;;;;;;5079985;28;20427;-85
2021/12/08 07:53:08;;;;;;;2.72;2.47;;;4.20;99.90;;;;;;5076417;28;20074;-80
2021/12/08 07:55:39;;;;;;;2.45;2.25;;;4.40;99.90;;;;;;5086746;28;20051;-79
2021/12/08 07:58:07;;;;;;;1.27;1.17;;;4.30;99.90;;;;;;5072771;28;20436;-79
2021/12/08 08:00:45;;;;;;;3.63;2.75;;;4.20;99.90;;;;;;5125494;27;20074;-86
2021/12/08 08:03:13;;;;;;;1.40;1.30;;;4.20;99.90;;;;;;5063031;28;20670;-79
2021/12/08 08:05:41;;;;;;;3.72;2.00;;;4.30;99.90;;;;;;5124909;27;20047;-80
2021/12/08 08:08:13;;;;;;;4.47;1.70;;;4.30;99.90;;;;;;5074334;28;20067;-83
2021/12/08 08:10:44;;;;;;;6.30;2.10;;;4.30;99.90;;;;;;5092121;28;20040;-82
2021/12/08 08:13:15;;;;;;;0.93;0.85;;;4.20;99.90;;;;;;5120489;27;20044;-81
2021/12/08 08:15:46;;;;;;;2.63;2.25;;;4.20;99.90;;;;;;5094964;28;20568;-83
2021/12/08 08:18:20;;;;;;;1.90;1.77;;;4.20;99.90;;;;;;5107716;28;20070;-82
2021/12/08 08:20:52;;;;;;;1.80;1.67;;;4.30;99.90;;;;;;5090297;28;20090;-81
2021/12/08 08:23:23;;;;;;;1.65;1.48;;;4.30;99.90;;;;;;5075124;28;20105;-83
2021/12/08 08:25:50;;;;;;;2.55;1.42;;;4.80;99.90;;;;;;5087799;28;20066;-81
2021/12/08 08:28:17;;;;;;;1.83;1.60;;;4.50;99.90;;;;;;5057017;28;20052;-82
2021/12/08 08:30:49;;;;;;;11.27;2.08;;;4.50;99.90;;;;;;5054824;28;20048;-80
2021/12/08 08:33:16;;;;;;;3.35;1.60;;;4.50;99.90;;;;;;5073419;28;20748;-82
2021/12/08 08:35:53;;;;;;;2.30;1.90;;;4.50;99.90;;;;;;5048662;28;20044;-82
2021/12/08 08:38:27;;;;;;;1.00;0.98;;;4.80;99.90;;;;;;5073312;28;20062;-83
2021/12/08 08:40:59;;;;;;;3.55;1.42;;;4.50;99.90;;;;;;5084812;28;20036;-86
2021/12/08 08:43:26;;;;;;;1.85;1.20;;;4.60;99.90;;;;;;5101774;28;20068;-82
2021/12/08 08:46:14;;;;;;;3.03;1.42;;;5.90;99.90;;;;;;5076096;28;20040;-79
2021/12/08 08:49:03;;;;;;;8.40;1.80;;;4.60;99.90;;;;;;5071762;28;20127;-76
2021/12/08 08:51:36;;;;;;;1.42;1.33;;;4.60;99.90;;;;;;5104133;28;20073;-84
2021/12/08 08:54:22;;;;;;;1.55;1.45;;;4.70;99.90;;;;;;5074933;28;20063;-81
2021/12/08 08:56:55;;;;;;;6.35;2.30;;;4.70;99.90;;;;;;5079789;28;20093;-80
2021/12/08 08:59:35;;;;;;;11.48;1.20;;;4.70;99.90;;;;;;5107052;28;20051;-81
2021/12/08 09:02:07;;;;;;;2.10;1.83;;;5.90;99.90;;;;;;5073582;28;20397;-81
2021/12/08 09:04:38;;;;;;;1.60;1.50;;;4.80;99.90;;;;;;5085872;28;20040;-81
2021/12/08 09:07:08;;;;;;;1.58;1.13;;;5.20;99.90;;;;;;5119814;28;20068;-81
2021/12/08 09:09:40;;;;;;;1.27;1.17;;;4.90;99.90;;;;;;5113827;28;20073;-82
2021/12/08 09:12:25;;;;;;;2.47;1.92;;;5.00;99.90;;;;;;5106219;28;20090;-81
2021/12/08 09:15:12;;;;;;;4.93;1.13;;;5.00;99.90;;;;;;5106899;28;20044;-82
2021/12/08 09:18:02;;;;;;;3.20;1.58;;;5.10;99.90;;;;;;5089881;28;20105;-80
2021/12/08 09:20:54;;;;;;;1.30;1.00;;;5.10;99.90;;;;;;5063343;28;20052;-83
2021/12/08 09:23:33;;;;;;;1.13;1.10;;;5.10;99.90;;;;;;5086154;28;20461;-84
2021/12/08 09:26:11;;;;;;;3.47;1.60;;;5.10;99.90;;;;;;5077003;28;20048;-81
2021/12/08 09:28:45;;;;;;;1.88;1.20;;;5.10;99.90;;;;;;5091778;28;20044;-82
2021/12/08 09:31:23;;;;;;;1.45;1.35;;;5.10;99.90;;;;;;5064787;28;20028;-84
2021/12/08 09:34:07;;;;;;;0.73;0.73;;;5.10;99.90;;;;;;5095824;28;20136;-84
2021/12/08 09:36:46;;;;;;;0.85;0.80;;;5.10;99.90;;;;;;5073421;28;20063;-82
2021/12/08 09:39:24;;;;;;;1.15;1.02;;;5.10;99.90;;;;;;5103571;28;20130;-83
2021/12/08 09:41:58;;;;;;;1.55;1.10;;;5.10;99.90;;;;;;5090434;28;20036;-82
2021/12/08 09:44:32;;;;;;;1.58;1.48;;;5.10;99.90;;;;;;5071792;28;20032;-79
2021/12/08 09:47:28;;;;;;;;;;;;;;;;;;;;;
2021/12/08 09:49:59;;;;;;;2.42;2.28;;;5.00;99.90;;;;;;5086539;28;20420;-81
2021/12/08 09:52:27;;;;;;;1.80;1.02;;;5.10;99.90;;;;;;5068519;28;20543;-81
2021/12/08 09:54:58;;;;;;;1.27;1.17;;;5.10;99.90;;;;;;5057503;28;20040;-84
2021/12/08 09:57:25;;;;;;;1.63;0.75;;;5.00;99.90;;;;;;5072076;28;20063;-81
2021/12/08 09:59:53;;;;;;;2.28;1.83;;;5.10;99.90;;;;;;5078611;28;20066;-83
2021/12/08 10:02:32;;;;;;;0.90;0.90;;;5.10;99.90;;;;;;5082039;28;20020;-80
2021/12/08 10:05:17;;;;;;;1.00;0.98;;;5.10;99.90;;;;;;5077255;28;20111;-79
2021/12/08 10:07:43;;;;;;;1.17;1.08;;;5.20;99.90;;;;;;5086601;28;20051;-78
2021/12/08 10:10:14;;;;;;;2.13;0.93;;;5.30;99.90;;;;;;5090986;28;20044;-82
2021/12/08 10:12:41;;;;;;;1.58;1.40;;;5.30;99.90;;;;;;5079921;28;20075;-79
2021/12/08 10:15:11;;;;;;;1.30;1.20;;;5.30;99.90;;;;;;5093664;28;20059;-78
2021/12/08 10:17:37;;;;;;;6.28;1.85;;;5.40;99.90;;;;;;5107116;28;20430;-79
2021/12/08 10:20:19;;;;;;;3.30;1.67;;;5.70;99.90;;;;;;5089361;28;20048;-79
2021/12/08 10:23:07;;;;;;;1.42;1.17;;;5.60;99.90;;;;;;5088111;28;20044;-78
2021/12/08 10:25:36;;;;;;;4.72;1.92;;;5.60;99.90;;;;;;5120358;27;20437;-80
2021/12/08 10:28:04;;;;;;;3.05;1.55;;;5.60;99.90;;;;;;5123752;27;20038;-81
2021/12/08 10:30:32;;;;;;;1.42;0.95;;;5.60;99.90;;;;;;5087195;28;20074;-83
2021/12/08 10:32:59;;;;;;;6.10;1.92;;;5.60;99.90;;;;;;5076398;28;20020;-83
2021/12/08 10:35:48;;;;;;;1.38;1.27;;;5.60;99.90;;;;;;5093687;27;20035;-81
2021/12/08 10:38:16;;;;;;;5.47;2.50;;;5.60;99.90;;;;;;5110124;28;20097;-84
2021/12/08 10:41:05;;;;;;;1.63;1.42;;;5.70;99.90;;;;;;5103209;28;20047;-86
2021/12/08 10:43:35;;;;;;;2.85;1.48;;;5.70;99.90;;;;;;5078205;28;20070;-85
2021/12/08 10:46:08;;;;;;;1.27;1.15;;;5.90;99.90;;;;;;5098361;28;20081;-83
2021/12/08 10:48:41;;;;;;;1.00;0.90;;;5.60;99.90;;;;;;5128992;27;20044;-84
2021/12/08 10:55:35;;;;;;;3.92;1.33;;;5.80;99.90;;;;;;5064583;28;20508;-88
2021/12/08 10:58:01;;;;;;;2.47;1.75;;;5.70;99.90;;;;;;5052528;28;20051;-84
2021/12/08 11:00:39;;;;;;;3.45;1.42;;;4.10;99.90;;;;;;5074568;28;20032;-87
2021/12/08 11:03:12;;;;;;;1.50;1.40;;;5.70;99.90;;;;;;5092594;28;20044;-83
2021/12/08 11:05:56;;;;;;;14.48;1.92;;;6.00;99.90;;;;;;5053795;28;20067;-87
2021/12/08 11:08:44;;;;;;;2.15;1.55;;;5.90;99.90;;;;;;5072939;28;20039;-86
2021/12/08 11:11:10;;;;;;;2.20;1.77;;;5.80;99.90;;;;;;5085904;28;20032;-83
2021/12/08 11:13:57;;;;;;;3.50;1.98;;;5.70;99.90;;;;;;5100823;28;20477;-89
2021/12/08 11:20:22;;;;;;;1.40;1.30;;;4.10;99.90;;;;;;5043675;28;20049;-85
2021/12/08 11:23:04;;;;;;;2.53;1.52;;;5.90;99.90;;;;;;5027395;28;20426;-85
2021/12/08 11:25:33;;;;;;;1.60;1.45;;;5.60;99.90;;;;;;5050834;28;20045;-84
2021/12/08 11:28:38;;;;;;;2.40;1.55;;;5.70;99.90;;;;;;5052080;28;20525;-85
2021/12/08 11:31:41;;;;;;;1.27;0.80;;;5.80;99.90;;;;;;5070669;28;20044;-87
2021/12/08 11:34:19;;;;;;;0.70;0.70;;;7.00;99.90;;;;;;5085321;28;20048;-88
2021/12/08 11:36:46;;;;;;;2.97;1.73;;;6.70;99.90;;;;;;5094387;28;20040;-90
2021/12/08 11:39:21;;;;;;;2.30;0.77;;;6.10;99.90;;;;;;5076997;28;20031;-88
2021/12/08 11:46:15;;;;;;;1.70;1.60;;;8.20;99.90;;;;;;5112170;28;20058;-86
2021/12/08 11:49:12;;;;;;;1.45;1.20;;;6.20;99.90;;;;;;5067562;28;20124;-87
2021/12/08 11:51:52;;;;;;;1.00;0.95;;;6.20;99.90;;;;;;5116149;27;20101;-84
2021/12/08 11:55:18;;;;;;;2.53;1.55;;;6.30;99.90;;;;;;5126474;27;20520;-85
2021/12/08 12:01:02;;;;;;;2.25;0.98;;;6.30;99.90;;;;;;4992862;28;20085;-85
2021/12/08 12:03:29;;;;;;;1.63;1.10;;;6.30;99.90;;;;;;4978359;28;20042;-82
2021/12/08 12:05:57;;;;;;;2.38;1.08;;;6.40;99.90;;;;;;4997123;28;20041;-80
2021/12/08 12:08:23;;;;;;;1.27;1.17;;;6.30;99.90;;;;;;5037710;28;20547;-80
2021/12/08 12:10:56;;;;;;;6.32;1.50;;;6.30;99.90;;;;;;5078071;28;20167;-81
2021/12/08 12:13:22;;;;;;;1.95;1.77;;;6.30;99.90;;;;;;5073541;28;20039;-82
2021/12/08 12:15:57;;;;;;;;;;;6.40;99.90;;;;;;5068767;28;20611;-81
2021/12/08 12:18:40;;;;;;;6.18;1.60;;;6.50;99.90;;;;;;5089059;28;19916;-81
2021/12/08 12:21:25;;;;;;;3.92;1.58;;;6.20;99.90;;;;;;5105011;27;20051;-84
2021/12/08 12:24:16;;;;;;;1.20;1.13;;;6.90;99.90;;;;;;5075273;28;20587;-80
2021/12/08 12:27:07;;;;;;;1.42;1.33;;;6.30;99.90;;;;;;5103208;27;20067;-82
2021/12/08 12:29:51;;;;;;;1.17;1.10;;;6.10;99.90;;;;;;5097068;28;20751;-78
2021/12/08 12:32:22;;;;;;;1.23;1.13;;;6.10;99.90;;;;;;5071254;28;20055;-81
2021/12/08 12:35:14;;;;;;;1.90;1.30;;;6.10;99.90;;;;;;5087202;28;20044;-82
2021/12/08 12:37:48;;;;;;;2.38;1.10;;;6.10;99.90;;;;;;5104064;28;20081;-82
2021/12/08 12:40:28;;;;;;;2.17;1.42;;;6.10;99.90;;;;;;5107539;28;20036;-81
2021/12/08 12:42:57;;;;;;;1.75;1.35;;;6.00;99.90;;;;;;5107716;28;20047;-85
2021/12/08 12:45:24;;;;;;;1.25;1.15;;;6.00;99.90;;;;;;5107391;28;20816;-82
2021/12/08 12:48:10;;;;;;;1.73;1.48;;;6.00;99.90;;;;;;5077343;28;20063;-84
2021/12/08 12:50:55;;;;;;;2.17;1.80;;;6.00;99.90;;;;;;5107427;28;20119;-80
2021/12/08 12:53:46;;;;;;;2.25;2.05;;;5.90;99.90;;;;;;5091974;28;20040;-81
2021/12/08 12:56:57;;;;;;;4.28;2.42;;;5.90;99.90;;;;;;5090152;28;20035;-80
2021/12/08 12:59:38;;;;;;;1.50;1.27;;;5.90;99.90;;;;;;5059321;28;20054;-79
2021/12/08 13:02:22;;;;;;;1.50;1.20;;;5.80;99.90;;;;;;5074261;28;20040;-82
2021/12/08 13:05:10;;;;;;;1.75;1.60;;;5.90;99.90;;;;;;5099780;28;20048;-81
2021/12/08 13:07:39;;;;;;;4.55;1.02;;;5.90;99.90;;;;;;5091927;28;20771;-79
2021/12/08 13:10:14;;;;;;;2.20;1.90;;;6.00;99.90;;;;;;5104778;28;20397;-82
2021/12/08 13:12:42;;;;;;;1.55;1.17;;;6.00;99.90;;;;;;5075076;28;20082;-81
2021/12/08 13:15:20;;;;;;;4.00;1.48;;;6.00;99.90;;;;;;5058573;28;20084;-83
2021/12/08 13:18:04;;;;;;;1.10;1.00;;;6.00;99.90;;;;;;5074895;28;20097;-82
2021/12/08 13:20:34;;;;;;;1.50;1.17;;;6.00;99.90;;;;;;5090589;28;20480;-81
2021/12/08 13:23:06;;;;;;;4.43;1.77;;;6.00;99.90;;;;;;5101032;28;20051;-78
2021/12/08 13:25:58;;;;;;;2.33;1.65;;;6.40;99.90;;;;;;5072310;28;20403;-81
2021/12/08 13:28:37;;;;;;;2.03;1.40;;;6.00;99.90;;;;;;5082762;28;20048;-79
2021/12/08 13:31:38;;;;;;;2.05;1.27;;;6.00;99.90;;;;;;5075806;28;20898;-82
2021/12/08 13:34:10;;;;;;;5.85;1.80;;;5.90;99.90;;;;;;5127113;27;20127;-78
2021/12/08 13:36:43;;;;;;;2.35;1.42;;;5.90;99.90;;;;;;5060743;28;20059;-82
2021/12/08 13:39:21;;;;;;;1.02;0.93;;;5.90;99.90;;;;;;5077402;28;20036;-80
2021/12/08 13:41:59;;;;;;;1.42;1.13;;;5.90;99.90;;;;;;5094649;28;20185;-80
2021/12/08 13:44:33;;;;;;;1.13;1.10;;;5.90;99.90;;;;;;5087476;28;20027;-80
2021/12/08 13:47:03;;;;;;;10.95;1.95;;;5.90;99.90;;;;;;5071615;28;20033;-79
2021/12/08 13:49:35;;;;;;;1.38;1.17;;;5.80;99.90;;;;;;5071419;28;20047;-80
2021/12/08 13:52:06;;;;;;;5.00;1.20;;;5.90;99.90;;;;;;5110433;28;20070;-80
2021/12/08 13:54:39;;;;;;;1.30;1.20;;;6.90;99.90;;;;;;5080610;28;20093;-81
2021/12/08 13:57:31;;;;;;;5.25;1.65;;;5.90;99.90;;;;;;5077459;28;20350;-79
2021/12/08 14:00:04;;;;;;;1.30;1.20;;;6.00;99.90;;;;;;5129181;27;20043;-77
2021/12/08 14:02:37;;;;;;;1.17;1.05;;;6.10;99.90;;;;;;5072881;28;20082;-81
2021/12/08 14:05:18;;;;;;;1.63;1.10;;;6.20;99.90;;;;;;5119979;27;20044;-80
2021/12/08 14:07:51;;;;;;;1.58;1.17;;;6.40;99.90;;;;;;5080302;28;20040;-80
2021/12/08 14:10:22;;;;;;;4.60;1.20;;;6.50;99.90;;;;;;5115260;27;20044;-80
2021/12/08 14:13:19;;;;;;;2.15;1.65;;;6.60;99.90;;;;;;5100664;27;20347;-81
2021/12/08 14:15:54;;;;;;;5.32;1.63;;;6.60;99.90;;;;;;5072603;28;20064;-80
2021/12/08 14:18:36;;;;;;;0.90;0.90;;;6.60;99.90;;;;;;5125423;27;20047;-78
2021/12/08 14:21:07;;;;;;;1.20;1.10;;;6.50;99.90;;;;;;5107093;28;20528;-79